SAS73J EFHK-EFOU
Flight info
| Callsign | SAS73J |
|---|---|
| Flight time | 0h 58m |
| Altitude | 36000 |
| Route | TEVRU Y75 SUVIB |
| Aircraft | B738/M-SDGIJ1LRWY/SB1 |
Departure
| Time | 2026-04-23 19:34 |
|---|---|
| Airport | Helsinki Vantaa Airport (EFHK) |
Arrival
| Time | 2026-04-23 20:32 |
|---|---|
| Airport | Oulu Airport (EFOU) |
| Time | Latitude | Longitude | Altitude | Speed | Heading |
|---|---|---|---|---|---|
| 2026-04-23 19:00 | 60.31971 | 24.96737 | 189 ft | 0 kts | 177° |
| 2026-04-23 19:19 | 60.31997 | 24.96735 | 190 ft | 2 kts | 177° |
| 2026-04-23 19:19 | 60.32013 | 24.96733 | 190 ft | 2 kts | 177° |
| 2026-04-23 19:20 | 60.32041 | 24.96742 | 190 ft | 2 kts | 210° |
| 2026-04-23 19:20 | 60.32052 | 24.96757 | 190 ft | 0 kts | 227° |
| 2026-04-23 19:20 | 60.32056 | 24.96768 | 190 ft | 0 kts | 230° |
| 2026-04-23 19:24 | 60.32025 | 24.96697 | 189 ft | 8 kts | 228° |
| 2026-04-23 19:25 | 60.31924 | 24.96472 | 189 ft | 12 kts | 226° |
| 2026-04-23 19:25 | 60.31856 | 24.96300 | 189 ft | 4 kts | 251° |
| 2026-04-23 19:26 | 60.31852 | 24.96254 | 189 ft | 0 kts | 267° |
| 2026-04-23 19:26 | 60.31858 | 24.96176 | 189 ft | 9 kts | 293° |
| 2026-04-23 19:27 | 60.31917 | 24.95956 | 189 ft | 8 kts | 248° |
| 2026-04-23 19:27 | 60.31818 | 24.95708 | 189 ft | 6 kts | 225° |
| 2026-04-23 19:28 | 60.31752 | 24.95571 | 189 ft | 7 kts | 226° |
| 2026-04-23 19:28 | 60.31657 | 24.95362 | 189 ft | 13 kts | 227° |
| 2026-04-23 19:29 | 60.31586 | 24.95213 | 189 ft | 16 kts | 225° |
| 2026-04-23 19:29 | 60.31410 | 24.94812 | 189 ft | 21 kts | 228° |
| 2026-04-23 19:30 | 60.31215 | 24.94385 | 189 ft | 20 kts | 229° |
| 2026-04-23 19:30 | 60.31128 | 24.94189 | 189 ft | 17 kts | 227° |
| 2026-04-23 19:30 | 60.31034 | 24.93967 | 189 ft | 7 kts | 251° |
| 2026-04-23 19:31 | 60.31034 | 24.93880 | 189 ft | 4 kts | 288° |
| 2026-04-23 19:31 | 60.31044 | 24.93838 | 189 ft | 0 kts | 298° |
| 2026-04-23 19:32 | 60.31047 | 24.93829 | 189 ft | 4 kts | 299° |
| 2026-04-23 19:32 | 60.31101 | 24.93728 | 189 ft | 17 kts | 337° |
| 2026-04-23 19:32 | 60.31196 | 24.93775 | 189 ft | 14 kts | 45° |
| 2026-04-23 19:32 | 60.31262 | 24.93919 | 189 ft | 13 kts | 47° |
| 2026-04-23 19:33 | 60.31325 | 24.94058 | 189 ft | 13 kts | 49° |
| 2026-04-23 19:33 | 60.31399 | 24.94230 | 189 ft | 23 kts | 48° |
| 2026-04-23 19:33 | 60.32194 | 24.95980 | 189 ft | 141 kts | 48° |
| 2026-04-23 19:34 | 60.32928 | 24.97578 | 444 ft | 161 kts | 45° |
| 2026-04-23 19:34 | 60.33705 | 24.99262 | 984 ft | 168 kts | 45° |
| 2026-04-23 19:34 | 60.35369 | 25.02921 | 1908 ft | 188 kts | 44° |
| 2026-04-23 19:35 | 60.36281 | 25.04935 | 2284 ft | 200 kts | 44° |
| 2026-04-23 19:35 | 60.37252 | 25.07079 | 2653 ft | 212 kts | 44° |
| 2026-04-23 19:35 | 60.38265 | 25.09317 | 2987 ft | 226 kts | 44° |
| 2026-04-23 19:35 | 60.39422 | 25.11614 | 3428 ft | 236 kts | 34° |
| 2026-04-23 19:36 | 60.40881 | 25.12985 | 4025 ft | 237 kts | 8° |
| 2026-04-23 19:36 | 60.42547 | 25.13149 | 4557 ft | 244 kts | 357° |
| 2026-04-23 19:36 | 60.44236 | 25.13041 | 5247 ft | 246 kts | 358° |
| 2026-04-23 19:36 | 60.45966 | 25.13030 | 5932 ft | 249 kts | 359° |
| 2026-04-23 19:37 | 60.49404 | 25.13096 | 7421 ft | 250 kts | 359° |
| 2026-04-23 19:37 | 60.51135 | 25.13108 | 8171 ft | 251 kts | 358° |
| 2026-04-23 19:37 | 60.52886 | 25.13109 | 8895 ft | 253 kts | 358° |
| 2026-04-23 19:38 | 60.54617 | 25.13106 | 9679 ft | 253 kts | 358° |
| 2026-04-23 19:38 | 60.56377 | 25.13102 | 10328 ft | 258 kts | 358° |
| 2026-04-23 19:38 | 60.58236 | 25.13099 | 10704 ft | 274 kts | 358° |
| 2026-04-23 19:38 | 60.60154 | 25.13096 | 11161 ft | 286 kts | 358° |
| 2026-04-23 19:39 | 60.62161 | 25.13094 | 11780 ft | 292 kts | 358° |
| 2026-04-23 19:39 | 60.64171 | 25.13094 | 12497 ft | 295 kts | 358° |
| 2026-04-23 19:39 | 60.66216 | 25.13093 | 13333 ft | 295 kts | 358° |
| 2026-04-23 19:39 | 60.68265 | 25.13093 | 14093 ft | 296 kts | 358° |
| 2026-04-23 19:40 | 60.70306 | 25.13092 | 14870 ft | 298 kts | 358° |
| 2026-04-23 19:40 | 60.72344 | 25.13089 | 15682 ft | 297 kts | 357° |
| 2026-04-23 19:40 | 60.74429 | 25.13083 | 16375 ft | 300 kts | 358° |
| 2026-04-23 19:40 | 60.76505 | 25.13079 | 17107 ft | 301 kts | 358° |
| 2026-04-23 19:41 | 60.78591 | 25.13089 | 17772 ft | 304 kts | 358° |
| 2026-04-23 19:41 | 60.80694 | 25.13238 | 18451 ft | 306 kts | 0° |
| 2026-04-23 19:41 | 60.82790 | 25.13490 | 19139 ft | 307 kts | 0° |
| 2026-04-23 19:41 | 60.84916 | 25.13757 | 19825 ft | 307 kts | 0° |
| 2026-04-23 19:42 | 60.87031 | 25.14012 | 20478 ft | 307 kts | 0° |
| 2026-04-23 19:42 | 60.89161 | 25.14252 | 21078 ft | 309 kts | 0° |
| 2026-04-23 19:42 | 60.91307 | 25.14489 | 21690 ft | 310 kts | 360° |
| 2026-04-23 19:42 | 60.93432 | 25.14717 | 22308 ft | 309 kts | 360° |
| 2026-04-23 19:43 | 60.95594 | 25.14947 | 22843 ft | 311 kts | 0° |
| 2026-04-23 19:43 | 60.97722 | 25.15174 | 23427 ft | 311 kts | 360° |
| 2026-04-23 19:43 | 60.99883 | 25.15403 | 23949 ft | 312 kts | 0° |
| 2026-04-23 19:43 | 61.02039 | 25.15637 | 24451 ft | 314 kts | 360° |
| 2026-04-23 19:44 | 61.04212 | 25.15871 | 24964 ft | 315 kts | 359° |
| 2026-04-23 19:44 | 61.06394 | 25.16106 | 25480 ft | 315 kts | 0° |
| 2026-04-23 19:44 | 61.08571 | 25.16338 | 26001 ft | 316 kts | 360° |
| 2026-04-23 19:44 | 61.10768 | 25.16574 | 26498 ft | 317 kts | 359° |
| 2026-04-23 19:45 | 61.12945 | 25.16805 | 26996 ft | 319 kts | 359° |
| 2026-04-23 19:45 | 61.15151 | 25.17044 | 27474 ft | 321 kts | 359° |
| 2026-04-23 19:45 | 61.17378 | 25.17288 | 27947 ft | 322 kts | 359° |
| 2026-04-23 19:45 | 61.19614 | 25.17532 | 28427 ft | 323 kts | 359° |
| 2026-04-23 19:46 | 61.21842 | 25.17769 | 28875 ft | 324 kts | 359° |
| 2026-04-23 19:46 | 61.24105 | 25.18011 | 29312 ft | 326 kts | 359° |
| 2026-04-23 19:46 | 61.26361 | 25.18256 | 29809 ft | 326 kts | 359° |
| 2026-04-23 19:46 | 61.28608 | 25.18499 | 30244 ft | 327 kts | 359° |
| 2026-04-23 19:47 | 61.30877 | 25.18744 | 30628 ft | 329 kts | 359° |
| 2026-04-23 19:47 | 61.33170 | 25.18996 | 30924 ft | 332 kts | 359° |
| 2026-04-23 19:47 | 61.35522 | 25.19250 | 31172 ft | 337 kts | 359° |
| 2026-04-23 19:47 | 61.37868 | 25.19504 | 31447 ft | 340 kts | 359° |
| 2026-04-23 19:48 | 61.40251 | 25.19762 | 31790 ft | 342 kts | 359° |
| 2026-04-23 19:48 | 61.42632 | 25.20026 | 32188 ft | 343 kts | 359° |
| 2026-04-23 19:48 | 61.45015 | 25.20293 | 32635 ft | 341 kts | 359° |
| 2026-04-23 19:48 | 61.47391 | 25.20560 | 33105 ft | 339 kts | 359° |
| 2026-04-23 19:49 | 61.49715 | 25.20821 | 33486 ft | 339 kts | 359° |
| 2026-04-23 19:49 | 61.52085 | 25.21082 | 33758 ft | 340 kts | 359° |
| 2026-04-23 19:49 | 61.54441 | 25.21342 | 34028 ft | 341 kts | 359° |
| 2026-04-23 19:49 | 61.56803 | 25.21605 | 34366 ft | 340 kts | 359° |
| 2026-04-23 19:50 | 61.59138 | 25.21863 | 34585 ft | 340 kts | 360° |
| 2026-04-23 19:50 | 61.61531 | 25.22128 | 34763 ft | 342 kts | 359° |
| 2026-04-23 19:50 | 61.63897 | 25.22392 | 34908 ft | 345 kts | 359° |
| 2026-04-23 19:50 | 61.66313 | 25.22659 | 35099 ft | 347 kts | 360° |
| 2026-04-23 19:51 | 61.68711 | 25.22926 | 35277 ft | 348 kts | 0° |
| 2026-04-23 19:51 | 61.71131 | 25.23196 | 35433 ft | 350 kts | 359° |
| 2026-04-23 19:51 | 61.73574 | 25.23467 | 35573 ft | 353 kts | 360° |
| 2026-04-23 19:51 | 61.76043 | 25.23742 | 35709 ft | 355 kts | 360° |
| 2026-04-23 19:52 | 61.78507 | 25.24017 | 35772 ft | 358 kts | 360° |
| 2026-04-23 19:52 | 61.83443 | 25.24572 | 35772 ft | 354 kts | 0° |
| 2026-04-23 19:53 | 61.88308 | 25.25122 | 35770 ft | 354 kts | 0° |
| 2026-04-23 19:53 | 61.91571 | 25.25490 | 35764 ft | 353 kts | 360° |
| 2026-04-23 19:54 | 61.96488 | 25.26051 | 35764 ft | 354 kts | 359° |
| 2026-04-23 19:54 | 62.01392 | 25.26605 | 35760 ft | 354 kts | 359° |
| 2026-04-23 19:55 | 62.06298 | 25.27162 | 35757 ft | 355 kts | 360° |
| 2026-04-23 19:55 | 62.11219 | 25.27725 | 35766 ft | 356 kts | 359° |
| 2026-04-23 19:56 | 62.16126 | 25.28291 | 35757 ft | 354 kts | 359° |
| 2026-04-23 19:56 | 62.21062 | 25.28860 | 35766 ft | 356 kts | 359° |
| 2026-04-23 19:57 | 62.25954 | 25.29424 | 35765 ft | 355 kts | 359° |
| 2026-04-23 19:57 | 62.30867 | 25.29993 | 35773 ft | 355 kts | 359° |
| 2026-04-23 19:58 | 62.35801 | 25.30563 | 35770 ft | 356 kts | 359° |
| 2026-04-23 19:58 | 62.40717 | 25.31140 | 35776 ft | 355 kts | 359° |
| 2026-04-23 19:59 | 62.45637 | 25.31715 | 35768 ft | 355 kts | 359° |
| 2026-04-23 19:59 | 62.50557 | 25.32293 | 35769 ft | 355 kts | 359° |
| 2026-04-23 20:00 | 62.55468 | 25.32872 | 35759 ft | 355 kts | 359° |
| 2026-04-23 20:00 | 62.60410 | 25.33449 | 35758 ft | 357 kts | 359° |
| 2026-04-23 20:01 | 62.65348 | 25.34034 | 35757 ft | 356 kts | 359° |
| 2026-04-23 20:01 | 62.70281 | 25.34621 | 35732 ft | 358 kts | 359° |
| 2026-04-23 20:01 | 62.72725 | 25.34911 | 35504 ft | 356 kts | 359° |
| 2026-04-23 20:02 | 62.75207 | 25.35211 | 35284 ft | 352 kts | 359° |
| 2026-04-23 20:02 | 62.77621 | 25.35503 | 35078 ft | 348 kts | 359° |
| 2026-04-23 20:02 | 62.80022 | 25.35791 | 34870 ft | 346 kts | 359° |
| 2026-04-23 20:02 | 62.82424 | 25.36077 | 34669 ft | 345 kts | 358° |
| 2026-04-23 20:03 | 62.84808 | 25.36360 | 34457 ft | 343 kts | 358° |
| 2026-04-23 20:03 | 62.87163 | 25.36645 | 34256 ft | 337 kts | 358° |
| 2026-04-23 20:03 | 62.89486 | 25.36929 | 33951 ft | 336 kts | 358° |
| 2026-04-23 20:03 | 62.91821 | 25.37209 | 33576 ft | 336 kts | 358° |
| 2026-04-23 20:04 | 62.94133 | 25.37483 | 33203 ft | 342 kts | 357° |
| 2026-04-23 20:04 | 62.96515 | 25.37768 | 32824 ft | 345 kts | 358° |
| 2026-04-23 20:04 | 62.98925 | 25.38057 | 32400 ft | 345 kts | 358° |
| 2026-04-23 20:04 | 63.01290 | 25.38343 | 31951 ft | 340 kts | 358° |
| 2026-04-23 20:05 | 63.03650 | 25.38628 | 31488 ft | 343 kts | 358° |
| 2026-04-23 20:05 | 63.06014 | 25.38911 | 30990 ft | 346 kts | 358° |
| 2026-04-23 20:05 | 63.08410 | 25.39196 | 30536 ft | 345 kts | 358° |
| 2026-04-23 20:05 | 63.10797 | 25.39489 | 30063 ft | 343 kts | 358° |
| 2026-04-23 20:06 | 63.13186 | 25.39781 | 29592 ft | 346 kts | 359° |
| 2026-04-23 20:06 | 63.15573 | 25.40071 | 29126 ft | 351 kts | 358° |
| 2026-04-23 20:06 | 63.18016 | 25.40368 | 28649 ft | 350 kts | 359° |
| 2026-04-23 20:06 | 63.20416 | 25.40664 | 28181 ft | 344 kts | 358° |
| 2026-04-23 20:07 | 63.22784 | 25.40962 | 27709 ft | 339 kts | 358° |
| 2026-04-23 20:07 | 63.25100 | 25.41249 | 27246 ft | 337 kts | 358° |
| 2026-04-23 20:07 | 63.27432 | 25.41535 | 26771 ft | 334 kts | 358° |
| 2026-04-23 20:07 | 63.29727 | 25.41817 | 26309 ft | 333 kts | 358° |
| 2026-04-23 20:08 | 63.32040 | 25.42103 | 25839 ft | 331 kts | 357° |
| 2026-04-23 20:08 | 63.34311 | 25.42386 | 25376 ft | 329 kts | 358° |
| 2026-04-23 20:08 | 63.36560 | 25.42670 | 24932 ft | 326 kts | 358° |
| 2026-04-23 20:08 | 63.38820 | 25.42955 | 24483 ft | 324 kts | 358° |
| 2026-04-23 20:09 | 63.41043 | 25.43230 | 24038 ft | 325 kts | 358° |
| 2026-04-23 20:09 | 63.43287 | 25.43510 | 23603 ft | 323 kts | 358° |
| 2026-04-23 20:09 | 63.45526 | 25.43787 | 23176 ft | 322 kts | 358° |
| 2026-04-23 20:09 | 63.47732 | 25.44062 | 22754 ft | 323 kts | 358° |
| 2026-04-23 20:10 | 63.49977 | 25.44338 | 22322 ft | 322 kts | 358° |
| 2026-04-23 20:10 | 63.52178 | 25.44615 | 21906 ft | 322 kts | 358° |
| 2026-04-23 20:10 | 63.54417 | 25.44895 | 21476 ft | 322 kts | 358° |
| 2026-04-23 20:10 | 63.56653 | 25.45175 | 21035 ft | 321 kts | 359° |
| 2026-04-23 20:11 | 63.58861 | 25.45456 | 20604 ft | 322 kts | 358° |
| 2026-04-23 20:11 | 63.61102 | 25.45741 | 20166 ft | 322 kts | 359° |
| 2026-04-23 20:11 | 63.63315 | 25.46024 | 19737 ft | 322 kts | 358° |
| 2026-04-23 20:11 | 63.65547 | 25.46309 | 19297 ft | 322 kts | 359° |
| 2026-04-23 20:12 | 63.67778 | 25.46596 | 18883 ft | 320 kts | 359° |
| 2026-04-23 20:12 | 63.69933 | 25.46875 | 18632 ft | 310 kts | 359° |
| 2026-04-23 20:12 | 63.72075 | 25.47154 | 18385 ft | 312 kts | 359° |
| 2026-04-23 20:12 | 63.74269 | 25.47426 | 18152 ft | 325 kts | 359° |
| 2026-04-23 20:13 | 63.76518 | 25.47709 | 17904 ft | 322 kts | 359° |
| 2026-04-23 20:13 | 63.78736 | 25.47996 | 17660 ft | 319 kts | 359° |
| 2026-04-23 20:13 | 63.80946 | 25.48282 | 17414 ft | 320 kts | 359° |
| 2026-04-23 20:13 | 63.83163 | 25.48569 | 17173 ft | 326 kts | 359° |
| 2026-04-23 20:14 | 63.85467 | 25.48862 | 16927 ft | 333 kts | 359° |
| 2026-04-23 20:14 | 63.87744 | 25.49156 | 16676 ft | 331 kts | 359° |
| 2026-04-23 20:14 | 63.90035 | 25.49454 | 16433 ft | 329 kts | 359° |
| 2026-04-23 20:14 | 63.92314 | 25.49750 | 16199 ft | 330 kts | 0° |
| 2026-04-23 20:15 | 63.94599 | 25.50048 | 15947 ft | 330 kts | 360° |
| 2026-04-23 20:15 | 63.96865 | 25.50343 | 15694 ft | 330 kts | 360° |
| 2026-04-23 20:15 | 63.99159 | 25.50640 | 15444 ft | 330 kts | 0° |
| 2026-04-23 20:15 | 64.01437 | 25.50938 | 15197 ft | 328 kts | 360° |
| 2026-04-23 20:16 | 64.03729 | 25.51237 | 14948 ft | 330 kts | 360° |
| 2026-04-23 20:16 | 64.05997 | 25.51533 | 14698 ft | 329 kts | 0° |
| 2026-04-23 20:16 | 64.08238 | 25.51829 | 14446 ft | 320 kts | 360° |
| 2026-04-23 20:16 | 64.10444 | 25.52125 | 14185 ft | 309 kts | 0° |
| 2026-04-23 20:17 | 64.12520 | 25.52400 | 13932 ft | 299 kts | 360° |
| 2026-04-23 20:17 | 64.14557 | 25.52670 | 13676 ft | 290 kts | 0° |
| 2026-04-23 20:17 | 64.16531 | 25.52930 | 13420 ft | 281 kts | 0° |
| 2026-04-23 20:17 | 64.18462 | 25.53182 | 13162 ft | 274 kts | 0° |
| 2026-04-23 20:18 | 64.20324 | 25.53426 | 12909 ft | 269 kts | 360° |
| 2026-04-23 20:18 | 64.22203 | 25.53669 | 12650 ft | 270 kts | 360° |
| 2026-04-23 20:18 | 64.24062 | 25.53910 | 12293 ft | 270 kts | 0° |
| 2026-04-23 20:18 | 64.25924 | 25.54156 | 11897 ft | 268 kts | 0° |
| 2026-04-23 20:19 | 64.27756 | 25.54401 | 11508 ft | 266 kts | 0° |
| 2026-04-23 20:19 | 64.29594 | 25.54646 | 11115 ft | 264 kts | 0° |
| 2026-04-23 20:19 | 64.31396 | 25.54886 | 10734 ft | 262 kts | 0° |
| 2026-04-23 20:19 | 64.33210 | 25.55128 | 10353 ft | 260 kts | 0° |
| 2026-04-23 20:20 | 64.34998 | 25.55367 | 10024 ft | 256 kts | 0° |
| 2026-04-23 20:20 | 64.36736 | 25.55602 | 9869 ft | 247 kts | 0° |
| 2026-04-23 20:20 | 64.38409 | 25.55830 | 9804 ft | 234 kts | 0° |
| 2026-04-23 20:20 | 64.40015 | 25.56047 | 9638 ft | 227 kts | 0° |
| 2026-04-23 20:21 | 64.41568 | 25.56250 | 9307 ft | 226 kts | 0° |
| 2026-04-23 20:21 | 64.43140 | 25.56457 | 8992 ft | 225 kts | 0° |
| 2026-04-23 20:21 | 64.44678 | 25.56663 | 8681 ft | 224 kts | 0° |
| 2026-04-23 20:21 | 64.46234 | 25.56869 | 8369 ft | 222 kts | 1° |
| 2026-04-23 20:22 | 64.47755 | 25.57070 | 8063 ft | 221 kts | 1° |
| 2026-04-23 20:22 | 64.49290 | 25.57272 | 7758 ft | 219 kts | 1° |
| 2026-04-23 20:22 | 64.50797 | 25.57471 | 7462 ft | 222 kts | 1° |
| 2026-04-23 20:22 | 64.52373 | 25.57678 | 7152 ft | 234 kts | 1° |
| 2026-04-23 20:23 | 64.54004 | 25.57896 | 6827 ft | 233 kts | 1° |
| 2026-04-23 20:23 | 64.55614 | 25.58114 | 6541 ft | 231 kts | 1° |
| 2026-04-23 20:23 | 64.57188 | 25.58328 | 6426 ft | 222 kts | 1° |
| 2026-04-23 20:23 | 64.58708 | 25.58533 | 6124 ft | 222 kts | 1° |
| 2026-04-23 20:24 | 64.60236 | 25.58735 | 5806 ft | 222 kts | 1° |
| 2026-04-23 20:24 | 64.61785 | 25.58940 | 5494 ft | 222 kts | 1° |
| 2026-04-23 20:24 | 64.63316 | 25.59145 | 5188 ft | 222 kts | 1° |
| 2026-04-23 20:24 | 64.64872 | 25.59356 | 4877 ft | 222 kts | 1° |
| 2026-04-23 20:25 | 64.66397 | 25.59569 | 4576 ft | 222 kts | 1° |
| 2026-04-23 20:25 | 64.67941 | 25.59784 | 4268 ft | 222 kts | 1° |
| 2026-04-23 20:25 | 64.69466 | 25.59990 | 3962 ft | 222 kts | 1° |
| 2026-04-23 20:25 | 64.71000 | 25.60194 | 3658 ft | 221 kts | 1° |
| 2026-04-23 20:26 | 64.72536 | 25.60404 | 3352 ft | 221 kts | 1° |
| 2026-04-23 20:26 | 64.74058 | 25.60616 | 3054 ft | 221 kts | 1° |
| 2026-04-23 20:26 | 64.75595 | 25.60827 | 2801 ft | 219 kts | 1° |
| 2026-04-23 20:26 | 64.77061 | 25.61336 | 2710 ft | 212 kts | 14° |
| 2026-04-23 20:27 | 64.78361 | 25.62898 | 2651 ft | 207 kts | 28° |
| 2026-04-23 20:27 | 64.79517 | 25.64756 | 2587 ft | 200 kts | 28° |
| 2026-04-23 20:27 | 64.80658 | 25.66504 | 2523 ft | 189 kts | 26° |
| 2026-04-23 20:27 | 64.81746 | 25.68069 | 2461 ft | 180 kts | 25° |
| 2026-04-23 20:28 | 64.82877 | 25.69216 | 2394 ft | 174 kts | 5° |
| 2026-04-23 20:28 | 64.84033 | 25.68799 | 2342 ft | 172 kts | 332° |
| 2026-04-23 20:28 | 64.84926 | 25.67051 | 2298 ft | 166 kts | 313° |
| 2026-04-23 20:28 | 64.85541 | 25.64839 | 2221 ft | 157 kts | 305° |
| 2026-04-23 20:29 | 64.86092 | 25.62658 | 2158 ft | 154 kts | 306° |
| 2026-04-23 20:29 | 64.86646 | 25.60516 | 2101 ft | 155 kts | 306° |
| 2026-04-23 20:29 | 64.87193 | 25.58359 | 2041 ft | 154 kts | 305° |
| 2026-04-23 20:29 | 64.87743 | 25.56181 | 1980 ft | 155 kts | 305° |
| 2026-04-23 20:30 | 64.88284 | 25.54040 | 1923 ft | 147 kts | 306° |
| 2026-04-23 20:30 | 64.89278 | 25.50122 | 1503 ft | 135 kts | 305° |
| 2026-04-23 20:30 | 64.89748 | 25.48272 | 1328 ft | 132 kts | 304° |
| 2026-04-23 20:31 | 64.90228 | 25.46381 | 1078 ft | 132 kts | 303° |
| 2026-04-23 20:31 | 64.90689 | 25.44557 | 875 ft | 132 kts | 303° |
| 2026-04-23 20:31 | 64.91169 | 25.42678 | 660 ft | 135 kts | 302° |
| 2026-04-23 20:31 | 64.91653 | 25.40790 | 445 ft | 138 kts | 302° |
| 2026-04-23 20:32 | 64.92143 | 25.38842 | 220 ft | 139 kts | 301° |
| 2026-04-23 20:32 | 64.92639 | 25.36914 | 49 ft | 130 kts | 299° |
| 2026-04-23 20:32 | 64.92824 | 25.36179 | 50 ft | 0 kts | 302° |
| 2026-04-23 20:33 | 64.92841 | 25.36112 | 50 ft | 13 kts | 302° |
| 2026-04-23 20:34 | 64.92921 | 25.35863 | 51 ft | 20 kts | 330° |
| 2026-04-23 20:34 | 64.93018 | 25.36004 | 50 ft | 19 kts | 74° |
| 2026-04-23 20:34 | 64.92985 | 25.36320 | 50 ft | 20 kts | 120° |
| 2026-04-23 20:34 | 64.92906 | 25.36607 | 49 ft | 20 kts | 125° |
| 2026-04-23 20:35 | 64.92829 | 25.36888 | 49 ft | 19 kts | 122° |
| 2026-04-23 20:35 | 64.92773 | 25.37128 | 48 ft | 14 kts | 119° |
| 2026-04-23 20:35 | 64.92749 | 25.37238 | 48 ft | 3 kts | 101° |
| 2026-04-23 20:35 | 64.92763 | 25.37295 | 47 ft | 4 kts | 44° |
| 2026-04-23 20:36 | 64.92788 | 25.37335 | 47 ft | 2 kts | 29° |
| 2026-04-23 20:36 | 64.92793 | 25.37341 | 47 ft | 0 kts | 34° |
| 2026-04-23 20:36 | 64.92796 | 25.37348 | 47 ft | 0 kts | 33° |